sensor_id;sensor_type;location;lat;lon;timestamp;pressure;altitude;pressure_sealevel;temperature;humidity
25232;BME280;13176;51.140;6.290;2023-03-12T00:00:10;100371.28;;;7.12;55.79
25232;BME280;13176;51.140;6.290;2023-03-12T00:02:37;100348.00;;;6.97;56.82
25232;BME280;13176;51.140;6.290;2023-03-12T00:05:04;100468.69;;;7.67;55.97
25232;BME280;13176;51.140;6.290;2023-03-12T00:07:31;100431.66;;;7.41;56.54
25232;BME280;13176;51.140;6.290;2023-03-12T00:09:57;100516.97;;;8.00;56.69
25232;BME280;13176;51.140;6.290;2023-03-12T00:12:24;100299.78;;;6.71;56.41
25232;BME280;13176;51.140;6.290;2023-03-12T00:14:50;100326.41;;;6.95;56.96
25232;BME280;13176;51.140;6.290;2023-03-12T00:17:17;100472.13;;;7.76;57.30
25232;BME280;13176;51.140;6.290;2023-03-12T00:19:49;100401.34;;;7.43;57.14
25232;BME280;13176;51.140;6.290;2023-03-12T00:22:16;100260.16;;;6.43;57.10
25232;BME280;13176;51.140;6.290;2023-03-12T00:24:42;100481.69;;;7.68;55.60
25232;BME280;13176;51.140;6.290;2023-03-12T00:27:08;100410.00;;;7.42;57.43
25232;BME280;13176;51.140;6.290;2023-03-12T00:29:35;100441.09;;;7.57;57.16
25232;BME280;13176;51.140;6.290;2023-03-12T00:32:01;100275.66;;;6.55;56.77
25232;BME280;13176;51.140;6.290;2023-03-12T00:34:28;100517.94;;;7.85;57.37
25232;BME280;13176;51.140;6.290;2023-03-12T00:36:55;100452.31;;;7.59;57.51
25232;BME280;13176;51.140;6.290;2023-03-12T00:39:21;100469.56;;;7.67;57.89
25232;BME280;13176;51.140;6.290;2023-03-12T00:41:47;100306.63;;;6.85;57.44
25232;BME280;13176;51.140;6.290;2023-03-12T00:44:17;100403.22;;;7.23;57.11
25232;BME280;13176;51.140;6.290;2023-03-12T00:46:44;100344.56;;;6.92;56.68
25232;BME280;13176;51.140;6.290;2023-03-12T00:49:10;100252.28;;;6.61;57.44
25232;BME280;13176;51.140;6.290;2023-03-12T00:51:37;100392.75;;;7.38;57.41
25232;BME280;13176;51.140;6.290;2023-03-12T00:54:04;100399.59;;;7.51;58.06
25232;BME280;13176;51.140;6.290;2023-03-12T00:56:33;100266.97;;;6.65;57.78
25232;BME280;13176;51.140;6.290;2023-03-12T00:58:59;100458.25;;;7.76;56.75
25232;BME280;13176;51.140;6.290;2023-03-12T01:01:26;100447.13;;;7.62;57.71
25232;BME280;13176;51.140;6.290;2023-03-12T01:03:53;100282.50;;;6.68;57.61
25232;BME280;13176;51.140;6.290;2023-03-12T01:06:20;100438.47;;;7.58;57.35
25232;BME280;13176;51.140;6.290;2023-03-12T01:08:48;100410.03;;;7.39;57.63
25232;BME280;13176;51.140;6.290;2023-03-12T01:11:17;100456.56;;;7.69;58.33
25232;BME280;13176;51.140;6.290;2023-03-12T01:13:44;100366.91;;;7.23;58.20
25232;BME280;13176;51.140;6.290;2023-03-12T01:16:10;100445.28;;;7.76;58.74
25232;BME280;13176;51.140;6.290;2023-03-12T01:18:37;100347.03;;;7.22;58.86
25232;BME280;13176;51.140;6.290;2023-03-12T01:21:04;100422.91;;;7.52;58.71
25232;BME280;13176;51.140;6.290;2023-03-12T01:23:30;100239.31;;;6.67;58.79
25232;BME280;13176;51.140;6.290;2023-03-12T01:25:57;100230.78;;;6.47;58.63
25232;BME280;13176;51.140;6.290;2023-03-12T01:28:25;100302.09;;;7.17;59.10
25232;BME280;13176;51.140;6.290;2023-03-12T01:30:52;100295.28;;;7.02;57.38
25232;BME280;13176;51.140;6.290;2023-03-12T01:33:18;100258.44;;;6.48;59.01
25232;BME280;13176;51.140;6.290;2023-03-12T01:35:50;100397.97;;;7.29;58.40
25232;BME280;13176;51.140;6.290;2023-03-12T01:38:17;100222.31;;;6.09;58.66
25232;BME280;13176;51.140;6.290;2023-03-12T01:40:44;100402.34;;;7.24;58.28
25232;BME280;13176;51.140;6.290;2023-03-12T01:43:35;100256.69;;;6.47;59.21
25232;BME280;13176;51.140;6.290;2023-03-12T01:46:22;100408.19;;;7.62;59.16
25232;BME280;13176;51.140;6.290;2023-03-12T01:49:00;100416.91;;;7.49;59.28
25232;BME280;13176;51.140;6.290;2023-03-12T01:51:35;100267.84;;;6.63;59.95
25232;BME280;13176;51.140;6.290;2023-03-12T01:54:49;100297.97;;;6.86;60.13
25232;BME280;13176;51.140;6.290;2023-03-12T01:57:25;100396.09;;;7.55;60.32
25232;BME280;13176;51.140;6.290;2023-03-12T01:59:53;100408.25;;;7.47;60.25
25232;BME280;13176;51.140;6.290;2023-03-12T02:02:21;100268.69;;;6.66;59.81
25232;BME280;13176;51.140;6.290;2023-03-12T02:05:01;100191.25;;;6.15;60.64
25232;BME280;13176;51.140;6.290;2023-03-12T02:07:29;100313.44;;;6.98;60.26
25232;BME280;13176;51.140;6.290;2023-03-12T02:09:56;100315.13;;;7.02;60.99
25232;BME280;13176;51.140;6.290;2023-03-12T02:12:22;100374.53;;;7.47;60.80
25232;BME280;13176;51.140;6.290;2023-03-12T02:14:49;100166.94;;;6.37;60.96
25232;BME280;13176;51.140;6.290;2023-03-12T02:17:16;100179.06;;;6.26;60.60
25232;BME280;13176;51.140;6.290;2023-03-12T02:22:28;100346.19;;;7.14;61.03
25232;BME280;13176;51.140;6.290;2023-03-12T02:27:49;100379.75;;;7.41;61.31
25232;BME280;13176;51.140;6.290;2023-03-12T02:30:17;100169.69;;;6.07;61.67
25232;BME280;13176;51.140;6.290;2023-03-12T02:32:45;100211.88;;;6.30;61.45
25232;BME280;13176;51.140;6.290;2023-03-12T02:35:15;100363.44;;;7.27;61.98
25232;BME280;13176;51.140;6.290;2023-03-12T02:37:53;100225.59;;;6.50;62.29
25232;BME280;13176;51.140;6.290;2023-03-12T02:40:33;100378.94;;;7.30;62.40
25232;BME280;13176;51.140;6.290;2023-03-12T02:43:05;100247.13;;;6.63;61.78
25232;BME280;13176;51.140;6.290;2023-03-12T02:45:33;100235.00;;;6.63;62.45
25232;BME280;13176;51.140;6.290;2023-03-12T02:48:02;100247.00;;;6.79;62.24
25232;BME280;13176;51.140;6.290;2023-03-12T02:50:31;100333.13;;;7.29;62.34
25232;BME280;13176;51.140;6.290;2023-03-12T02:52:57;100216.84;;;6.66;62.00
25232;BME280;13176;51.140;6.290;2023-03-12T02:55:24;100270.28;;;6.91;60.97
25232;BME280;13176;51.140;6.290;2023-03-12T02:57:50;100179.84;;;6.43;61.54
25232;BME280;13176;51.140;6.290;2023-03-12T03:00:17;100254.66;;;6.97;61.62
25232;BME280;13176;51.140;6.290;2023-03-12T03:02:45;100235.72;;;6.89;61.55
25232;BME280;13176;51.140;6.290;2023-03-12T03:05:12;100182.41;;;6.49;61.82
25232;BME280;13176;51.140;6.290;2023-03-12T03:07:38;100257.31;;;6.89;62.48
25232;BME280;13176;51.140;6.290;2023-03-12T03:10:05;100206.47;;;6.69;62.56
25232;BME280;13176;51.140;6.290;2023-03-12T03:12:34;100234.94;;;6.78;62.35
25232;BME280;13176;51.140;6.290;2023-03-12T03:15:01;100091.25;;;5.90;61.97
25232;BME280;13176;51.140;6.290;2023-03-12T03:17:27;100263.38;;;6.88;62.22
25232;BME280;13176;51.140;6.290;2023-03-12T03:19:56;100340.69;;;7.62;62.33
25232;BME280;13176;51.140;6.290;2023-03-12T03:22:37;100311.44;;;7.39;61.77
25232;BME280;13176;51.140;6.290;2023-03-12T03:25:05;100233.16;;;6.83;62.15
25232;BME280;13176;51.140;6.290;2023-03-12T03:27:33;100204.66;;;6.80;61.71
25232;BME280;13176;51.140;6.290;2023-03-12T03:30:00;100334.78;;;7.43;62.10
25232;BME280;13176;51.140;6.290;2023-03-12T03:32:28;100212.53;;;6.65;61.72
25232;BME280;13176;51.140;6.290;2023-03-12T03:34:54;100131.69;;;6.15;62.19
25232;BME280;13176;51.140;6.290;2023-03-12T03:37:21;100227.22;;;6.63;62.18
25232;BME280;13176;51.140;6.290;2023-03-12T03:39:53;100225.44;;;6.74;61.91
25232;BME280;13176;51.140;6.290;2023-03-12T03:42:19;100182.50;;;6.31;62.17
25232;BME280;13176;51.140;6.290;2023-03-12T03:44:46;100237.53;;;6.78;62.32
25232;BME280;13176;51.140;6.290;2023-03-12T03:47:12;100182.47;;;6.37;61.75
25232;BME280;13176;51.140;6.290;2023-03-12T03:49:39;100129.09;;;6.12;62.11
25232;BME280;13176;51.140;6.290;2023-03-12T03:52:06;100255.53;;;6.97;62.22
25232;BME280;13176;51.140;6.290;2023-03-12T03:54:32;100310.53;;;7.43;62.41
25232;BME280;13176;51.140;6.290;2023-03-12T03:56:59;100200.44;;;6.64;61.97
25232;BME280;13176;51.140;6.290;2023-03-12T03:59:26;100309.69;;;7.41;62.12
25232;BME280;13176;51.140;6.290;2023-03-12T04:01:52;100261.47;;;7.13;62.24
25232;BME280;13176;51.140;6.290;2023-03-12T04:04:19;100149.72;;;6.27;61.59
25232;BME280;13176;51.140;6.290;2023-03-12T04:06:46;100256.38;;;6.98;62.64
25232;BME280;13176;51.140;6.290;2023-03-12T04:09:13;100172.88;;;6.53;62.73
25232;BME280;13176;51.140;6.290;2023-03-12T04:11:39;100228.84;;;6.82;62.93
25232;BME280;13176;51.140;6.290;2023-03-12T04:14:06;100253.88;;;6.84;63.57
25232;BME280;13176;51.140;6.290;2023-03-12T04:16:32;100134.16;;;6.33;63.29
25232;BME280;13176;51.140;6.290;2023-03-12T04:18:59;100210.59;;;6.94;63.76
25232;BME280;13176;51.140;6.290;2023-03-12T04:21:25;100311.44;;;7.36;63.71
25232;BME280;13176;51.140;6.290;2023-03-12T04:23:53;100278.63;;;7.29;63.88
25232;BME280;13176;51.140;6.290;2023-03-12T04:26:19;100086.69;;;6.30;64.13
25232;BME280;13176;51.140;6.290;2023-03-12T04:28:45;100304.50;;;7.41;64.38
25232;BME280;13176;51.140;6.290;2023-03-12T04:31:12;100294.09;;;7.44;64.57
25232;BME280;13176;51.140;6.290;2023-03-12T04:33:39;100132.31;;;6.50;64.92
25232;BME280;13176;51.140;6.290;2023-03-12T04:36:06;100070.41;;;6.11;64.63
25232;BME280;13176;51.140;6.290;2023-03-12T04:38:35;100251.03;;;7.22;65.12
25232;BME280;13176;51.140;6.290;2023-03-12T04:41:07;100268.91;;;7.55;64.51
25232;BME280;13176;51.140;6.290;2023-03-12T04:43:34;100274.13;;;7.50;64.85
25232;BME280;13176;51.140;6.290;2023-03-12T04:46:01;100177.75;;;6.97;65.12
25232;BME280;13176;51.140;6.290;2023-03-12T04:48:28;100263.78;;;7.49;64.50
25232;BME280;13176;51.140;6.290;2023-03-12T04:50:55;100137.25;;;6.83;65.11
25232;BME280;13176;51.140;6.290;2023-03-12T04:53:22;100081.50;;;6.31;65.30
25232;BME280;13176;51.140;6.290;2023-03-12T04:55:49;100150.47;;;6.47;65.65
25232;BME280;13176;51.140;6.290;2023-03-12T04:58:17;100171.75;;;6.91;65.75
25232;BME280;13176;51.140;6.290;2023-03-12T05:00:44;100110.63;;;6.63;65.59
25232;BME280;13176;51.140;6.290;2023-03-12T05:03:10;99999.66;;;6.09;65.38
25232;BME280;13176;51.140;6.290;2023-03-12T05:05:40;100184.34;;;7.34;65.34
25232;BME280;13176;51.140;6.290;2023-03-12T05:08:06;100042.72;;;6.24;65.45
25232;BME280;13176;51.140;6.290;2023-03-12T05:10:33;100228.47;;;7.31;65.55
25232;BME280;13176;51.140;6.290;2023-03-12T05:12:59;100068.44;;;6.46;65.54
25232;BME280;13176;51.140;6.290;2023-03-12T05:15:26;100244.00;;;7.33;65.98
25232;BME280;13176;51.140;6.290;2023-03-12T05:17:52;100053.94;;;6.23;65.51
25232;BME280;13176;51.140;6.290;2023-03-12T05:20:20;100243.09;;;7.41;65.74
25232;BME280;13176;51.140;6.290;2023-03-12T05:22:46;100128.75;;;6.63;66.25
25232;BME280;13176;51.140;6.290;2023-03-12T05:25:15;100151.03;;;6.91;66.29
25232;BME280;13176;51.140;6.290;2023-03-12T05:27:41;100123.41;;;6.82;66.24
25232;BME280;13176;51.140;6.290;2023-03-12T05:30:08;100227.38;;;7.53;66.59
25232;BME280;13176;51.140;6.290;2023-03-12T05:32:35;100227.53;;;7.37;67.18
25232;BME280;13176;51.140;6.290;2023-03-12T05:35:11;100021.09;;;6.26;67.18
25232;BME280;13176;51.140;6.290;2023-03-12T05:37:38;100200.00;;;7.24;69.01
25232;BME280;13176;51.140;6.290;2023-03-12T05:40:11;100206.63;;;7.55;67.60
25232;BME280;13176;51.140;6.290;2023-03-12T05:42:38;100052.75;;;6.61;67.68
25232;BME280;13176;51.140;6.290;2023-03-12T05:45:08;100026.28;;;6.26;68.56
25232;BME280;13176;51.140;6.290;2023-03-12T05:47:35;100063.91;;;6.72;68.31
25232;BME280;13176;51.140;6.290;2023-03-12T05:50:01;100185.28;;;7.26;68.44
25232;BME280;13176;51.140;6.290;2023-03-12T05:52:27;100107.00;;;6.83;69.37
25232;BME280;13176;51.140;6.290;2023-03-12T05:54:54;99970.34;;;6.04;68.94
25232;BME280;13176;51.140;6.290;2023-03-12T05:57:20;100135.25;;;7.12;69.48
25232;BME280;13176;51.140;6.290;2023-03-12T05:59:47;100110.38;;;6.91;69.45
25232;BME280;13176;51.140;6.290;2023-03-12T06:02:13;100177.47;;;7.27;70.16
25232;BME280;13176;51.140;6.290;2023-03-12T06:04:40;100068.31;;;6.61;70.24
25232;BME280;13176;51.140;6.290;2023-03-12T06:07:06;100167.91;;;7.31;70.31
25232;BME280;13176;51.140;6.290;2023-03-12T06:09:34;100157.59;;;7.28;70.30
25232;BME280;13176;51.140;6.290;2023-03-12T06:12:01;100061.41;;;6.60;70.58
25232;BME280;13176;51.140;6.290;2023-03-12T06:14:27;100175.66;;;7.37;70.47
25232;BME280;13176;51.140;6.290;2023-03-12T06:16:54;99928.94;;;6.04;70.11
25232;BME280;13176;51.140;6.290;2023-03-12T06:19:21;100157.44;;;7.43;70.29
25232;BME280;13176;51.140;6.290;2023-03-12T06:21:50;100173.00;;;7.44;70.43
25232;BME280;13176;51.140;6.290;2023-03-12T06:24:16;100039.84;;;6.57;70.85
25232;BME280;13176;51.140;6.290;2023-03-12T06:26:43;99968.44;;;6.24;71.17
25232;BME280;13176;51.140;6.290;2023-03-12T06:29:12;99992.59;;;6.26;71.24
25232;BME280;13176;51.140;6.290;2023-03-12T06:31:39;100052.66;;;6.73;71.78
25232;BME280;13176;51.140;6.290;2023-03-12T06:34:07;100177.34;;;7.42;71.37
25232;BME280;13176;51.140;6.290;2023-03-12T06:36:35;99999.31;;;6.50;70.94
25232;BME280;13176;51.140;6.290;2023-03-12T06:39:02;100092.16;;;6.99;71.21
25232;BME280;13176;51.140;6.290;2023-03-12T06:41:34;100123.13;;;7.14;71.30
25232;BME280;13176;51.140;6.290;2023-03-12T06:44:01;100181.75;;;7.33;71.82
25232;BME280;13176;51.140;6.290;2023-03-12T06:46:31;100177.25;;;7.50;71.25
25232;BME280;13176;51.140;6.290;2023-03-12T06:48:58;100176.56;;;7.30;71.52
25232;BME280;13176;51.140;6.290;2023-03-12T06:51:27;100165.28;;;7.37;71.69
25232;BME280;13176;51.140;6.290;2023-03-12T06:53:53;100169.50;;;7.47;71.34
25232;BME280;13176;51.140;6.290;2023-03-12T06:56:20;100087.91;;;6.93;71.74
25232;BME280;13176;51.140;6.290;2023-03-12T06:58:46;100093.75;;;7.13;71.08
25232;BME280;13176;51.140;6.290;2023-03-12T07:01:13;100089.66;;;6.88;71.82
25232;BME280;13176;51.140;6.290;2023-03-12T07:03:40;100150.47;;;7.48;71.66
25232;BME280;13176;51.140;6.290;2023-03-12T07:06:17;100143.59;;;7.44;71.91
25232;BME280;13176;51.140;6.290;2023-03-12T07:08:44;100165.03;;;7.61;70.93
25232;BME280;13176;51.140;6.290;2023-03-12T07:11:11;100174.56;;;7.62;71.29
25232;BME280;13176;51.140;6.290;2023-03-12T07:13:39;100165.97;;;7.54;71.67
25232;BME280;13176;51.140;6.290;2023-03-12T07:16:06;100100.53;;;7.26;71.85
25232;BME280;13176;51.140;6.290;2023-03-12T07:18:33;100153.03;;;7.51;72.74
25232;BME280;13176;51.140;6.290;2023-03-12T07:21:00;100025.69;;;6.90;72.14
25232;BME280;13176;51.140;6.290;2023-03-12T07:23:26;100038.59;;;6.95;72.58
25232;BME280;13176;51.140;6.290;2023-03-12T07:25:53;100023.16;;;6.86;72.56
25232;BME280;13176;51.140;6.290;2023-03-12T07:28:20;100121.03;;;7.49;72.79
25232;BME280;13176;51.140;6.290;2023-03-12T07:30:47;100071.16;;;7.26;72.43
25232;BME280;13176;51.140;6.290;2023-03-12T07:33:22;100134.66;;;7.69;72.04
25232;BME280;13176;51.140;6.290;2023-03-12T07:35:49;100177.63;;;7.96;71.93
25232;BME280;13176;51.140;6.290;2023-03-12T07:38:17;100094.41;;;7.32;73.43
25232;BME280;13176;51.140;6.290;2023-03-12T07:40:44;100080.69;;;7.22;72.81
25232;BME280;13176;51.140;6.290;2023-03-12T07:43:10;100077.25;;;7.22;73.53
25232;BME280;13176;51.140;6.290;2023-03-12T07:45:40;100133.91;;;7.61;73.59
25232;BME280;13176;51.140;6.290;2023-03-12T07:48:07;100180.25;;;7.93;73.41
25232;BME280;13176;51.140;6.290;2023-03-12T07:50:35;100028.16;;;7.01;74.57
25232;BME280;13176;51.140;6.290;2023-03-12T07:53:01;100102.16;;;7.35;76.08
25232;BME280;13176;51.140;6.290;2023-03-12T07:55:28;100097.81;;;7.38;74.87
25232;BME280;13176;51.140;6.290;2023-03-12T07:57:54;100167.38;;;7.82;76.04
25232;BME280;13176;51.140;6.290;2023-03-12T08:00:24;100031.78;;;6.88;77.73
25232;BME280;13176;51.140;6.290;2023-03-12T08:02:53;100035.22;;;6.90;77.83
25232;BME280;13176;51.140;6.290;2023-03-12T08:05:20;100159.66;;;7.76;78.52
25232;BME280;13176;51.140;6.290;2023-03-12T08:07:53;100157.28;;;7.58;80.41
25232;BME280;13176;51.140;6.290;2023-03-12T08:10:22;100090.00;;;7.40;80.65
25232;BME280;13176;51.140;6.290;2023-03-12T08:12:49;100103.88;;;7.36;81.67
25232;BME280;13176;51.140;6.290;2023-03-12T08:15:16;100151.06;;;7.72;81.12
25232;BME280;13176;51.140;6.290;2023-03-12T08:17:42;100130.34;;;7.68;81.09
25232;BME280;13176;51.140;6.290;2023-03-12T08:20:10;100085.59;;;7.48;81.50
25232;BME280;13176;51.140;6.290;2023-03-12T08:22:37;100086.47;;;7.47;82.54
25232;BME280;13176;51.140;6.290;2023-03-12T08:25:05;100026.25;;;7.21;81.64
25232;BME280;13176;51.140;6.290;2023-03-12T08:27:32;100129.28;;;7.84;82.70
25232;BME280;13176;51.140;6.290;2023-03-12T08:29:59;100170.66;;;7.98;82.51
25232;BME280;13176;51.140;6.290;2023-03-12T08:32:26;100048.50;;;7.37;82.85
25232;BME280;13176;51.140;6.290;2023-03-12T08:34:52;100088.75;;;7.71;83.96
25232;BME280;13176;51.140;6.290;2023-03-12T08:37:19;100135.22;;;7.94;83.38
25232;BME280;13176;51.140;6.290;2023-03-12T08:39:45;100051.81;;;7.51;83.29
25232;BME280;13176;51.140;6.290;2023-03-12T08:42:12;100125.72;;;7.92;84.18
25232;BME280;13176;51.140;6.290;2023-03-12T08:44:38;100125.78;;;7.88;83.71
25232;BME280;13176;51.140;6.290;2023-03-12T08:47:05;100081.09;;;7.62;84.37
25232;BME280;13176;51.140;6.290;2023-03-12T08:49:31;100134.38;;;7.92;84.05
25232;BME280;13176;51.140;6.290;2023-03-12T08:51:58;100153.19;;;8.11;84.58
25232;BME280;13176;51.140;6.290;2023-03-12T08:54:24;100065.50;;;7.65;85.22
25232;BME280;13176;51.140;6.290;2023-03-12T08:56:51;100173.75;;;8.29;86.15
25232;BME280;13176;51.140;6.290;2023-03-12T08:59:19;100037.03;;;7.59;85.49
25232;BME280;13176;51.140;6.290;2023-03-12T09:01:46;100123.69;;;8.16;86.01
25232;BME280;13176;51.140;6.290;2023-03-12T09:04:12;100084.16;;;7.93;86.52
25232;BME280;13176;51.140;6.290;2023-03-12T09:06:39;100054.91;;;7.81;86.55
25232;BME280;13176;51.140;6.290;2023-03-12T09:09:06;100135.69;;;8.26;86.78
25232;BME280;13176;51.140;6.290;2023-03-12T09:11:35;100161.56;;;8.35;88.15
25232;BME280;13176;51.140;6.290;2023-03-12T09:14:02;100123.66;;;8.19;90.60
25232;BME280;13176;51.140;6.290;2023-03-12T09:16:49;100112.41;;;8.17;93.38
25232;BME280;13176;51.140;6.290;2023-03-12T09:19:17;100088.88;;;8.29;91.86
25232;BME280;13176;51.140;6.290;2023-03-12T09:21:44;100049.44;;;8.00;92.16
25232;BME280;13176;51.140;6.290;2023-03-12T09:24:21;100029.41;;;8.05;95.99
25232;BME280;13176;51.140;6.290;2023-03-12T09:26:47;100093.78;;;8.47;96.17
25232;BME280;13176;51.140;6.290;2023-03-12T09:29:14;100111.00;;;8.54;98.97
25232;BME280;13176;51.140;6.290;2023-03-12T09:31:40;100078.09;;;8.53;99.30
25232;BME280;13176;51.140;6.290;2023-03-12T09:34:07;99959.13;;;8.17;98.03
25232;BME280;13176;51.140;6.290;2023-03-12T09:36:33;100039.69;;;8.70;97.36
25232;BME280;13176;51.140;6.290;2023-03-12T09:39:07;100017.16;;;8.69;96.18
25232;BME280;13176;51.140;6.290;2023-03-12T09:41:37;100197.72;;;9.56;100.00
25232;BME280;13176;51.140;6.290;2023-03-12T09:46:53;100168.03;;;9.66;100.00
25232;BME280;13176;51.140;6.290;2023-03-12T09:49:43;100110.50;;;9.34;100.00
25232;BME280;13176;51.140;6.290;2023-03-12T09:55:57;99971.16;;;8.73;100.00
25232;BME280;13176;51.140;6.290;2023-03-12T09:58:36;100038.38;;;9.39;100.00
25232;BME280;13176;51.140;6.290;2023-03-12T10:01:30;100042.06;;;9.29;100.00
25232;BME280;13176;51.140;6.290;2023-03-12T10:07:40;100140.47;;;10.01;100.00
25232;BME280;13176;51.140;6.290;2023-03-12T10:10:18;100152.25;;;10.17;100.00
25232;BME280;13176;51.140;6.290;2023-03-12T10:18:53;100188.75;;;10.58;100.00
25232;BME280;13176;51.140;6.290;2023-03-12T10:24:06;100196.75;;;10.88;100.00
25232;BME280;13176;51.140;6.290;2023-03-12T10:26:37;100195.13;;;10.83;100.00
25232;BME280;13176;51.140;6.290;2023-03-12T10:29:22;100175.72;;;10.56;100.00
25232;BME280;13176;51.140;6.290;2023-03-12T10:32:24;100210.03;;;11.14;100.00
25232;BME280;13176;51.140;6.290;2023-03-12T10:34:55;100100.19;;;10.52;100.00
25232;BME280;13176;51.140;6.290;2023-03-12T10:37:41;100206.66;;;11.09;100.00
25232;BME280;13176;51.140;6.290;2023-03-12T10:40:35;100208.25;;;11.16;100.00
25232;BME280;13176;51.140;6.290;2023-03-12T10:43:02;100208.25;;;11.16;100.00
25232;BME280;13176;51.140;6.290;2023-03-12T10:46:06;100212.22;;;11.31;100.00
25232;BME280;13176;51.140;6.290;2023-03-12T10:48:49;100198.84;;;11.09;100.00
25232;BME280;13176;51.140;6.290;2023-03-12T10:51:15;100189.63;;;11.30;100.00
25232;BME280;13176;51.140;6.290;2023-03-12T10:53:44;100137.75;;;11.15;100.00
25232;BME280;13176;51.140;6.290;2023-03-12T10:56:17;100064.63;;;10.84;100.00
25232;BME280;13176;51.140;6.290;2023-03-12T10:58:49;100214.84;;;11.65;100.00
25232;BME280;13176;51.140;6.290;2023-03-12T11:01:23;100225.75;;;11.81;100.00
25232;BME280;13176;51.140;6.290;2023-03-12T11:03:51;100215.53;;;11.72;100.00
25232;BME280;13176;51.140;6.290;2023-03-12T11:06:21;100206.94;;;11.67;100.00
25232;BME280;13176;51.140;6.290;2023-03-12T11:11:44;100199.81;;;12.04;100.00
25232;BME280;13176;51.140;6.290;2023-03-12T11:16:38;100150.75;;;11.83;100.00
25232;BME280;13176;51.140;6.290;2023-03-12T11:19:11;100189.34;;;12.36;100.00
25232;BME280;13176;51.140;6.290;2023-03-12T11:21:54;100205.38;;;12.24;100.00
25232;BME280;13176;51.140;6.290;2023-03-12T11:24:20;100154.78;;;11.94;100.00
25232;BME280;13176;51.140;6.290;2023-03-12T11:26:48;100204.06;;;12.38;100.00
25232;BME280;13176;51.140;6.290;2023-03-12T11:34:37;100074.31;;;11.75;100.00
25232;BME280;13176;51.140;6.290;2023-03-12T11:43:28;100205.47;;;12.21;100.00
25232;BME280;13176;51.140;6.290;2023-03-12T11:51:33;100219.09;;;12.60;100.00
25232;BME280;13176;51.140;6.290;2023-03-12T11:54:12;100213.91;;;12.59;100.00
25232;BME280;13176;51.140;6.290;2023-03-12T11:56:48;100076.25;;;11.99;99.93
25232;BME280;13176;51.140;6.290;2023-03-12T12:02:15;100185.88;;;12.91;98.14
25232;BME280;13176;51.140;6.290;2023-03-12T12:08:07;100183.59;;;13.08;98.47
25232;BME280;13176;51.140;6.290;2023-03-12T12:11:02;100124.25;;;13.07;98.98
25232;BME280;13176;51.140;6.290;2023-03-12T12:13:47;100052.28;;;13.42;94.10
25232;BME280;13176;51.140;6.290;2023-03-12T12:16:42;100183.75;;;14.27;92.91
25232;BME280;13176;51.140;6.290;2023-03-12T12:19:30;100132.22;;;14.25;90.42
25232;BME280;13176;51.140;6.290;2023-03-12T12:22:17;100171.03;;;14.84;88.70
25232;BME280;13176;51.140;6.290;2023-03-12T12:25:23;100183.56;;;15.20;86.14
25232;BME280;13176;51.140;6.290;2023-03-12T12:28:14;100085.38;;;14.59;83.99
25232;BME280;13176;51.140;6.290;2023-03-12T12:30:57;100061.94;;;13.87;86.86
25232;BME280;13176;51.140;6.290;2023-03-12T12:36:02;100049.75;;;13.40;88.85
25232;BME280;13176;51.140;6.290;2023-03-12T12:38:34;100072.63;;;13.35;89.32
25232;BME280;13176;51.140;6.290;2023-03-12T12:46:21;100134.63;;;14.31;88.96
25232;BME280;13176;51.140;6.290;2023-03-12T12:49:07;100115.31;;;14.55;85.68
25232;BME280;13176;51.140;6.290;2023-03-12T12:51:40;100132.53;;;14.62;85.81
25232;BME280;13176;51.140;6.290;2023-03-12T12:54:32;100134.00;;;14.69;86.95
25232;BME280;13176;51.140;6.290;2023-03-12T12:57:38;100143.34;;;14.76;87.10
25232;BME280;13176;51.140;6.290;2023-03-12T13:02:55;100041.16;;;13.82;87.38
25232;BME280;13176;51.140;6.290;2023-03-12T13:06:13;100137.28;;;14.06;87.95
25232;BME280;13176;51.140;6.290;2023-03-12T13:13:50;100124.81;;;14.36;87.35
25232;BME280;13176;51.140;6.290;2023-03-12T13:19:02;100033.00;;;13.67;85.45
25232;BME280;13176;51.140;6.290;2023-03-12T13:24:27;100119.09;;;14.48;83.86
25232;BME280;13176;51.140;6.290;2023-03-12T13:32:01;100057.69;;;13.84;80.69
25232;BME280;13176;51.140;6.290;2023-03-12T13:34:54;99938.19;;;13.33;79.57
25232;BME280;13176;51.140;6.290;2023-03-12T13:37:27;100011.84;;;13.49;79.28
25232;BME280;13176;51.140;6.290;2023-03-12T13:39:54;100084.81;;;14.06;78.95
25232;BME280;13176;51.140;6.290;2023-03-12T13:42:37;100044.97;;;13.74;77.83
25232;BME280;13176;51.140;6.290;2023-03-12T13:45:22;99994.69;;;13.63;77.26
25232;BME280;13176;51.140;6.290;2023-03-12T13:47:53;100082.56;;;14.20;77.22
25232;BME280;13176;51.140;6.290;2023-03-12T13:50:21;100018.09;;;13.67;77.28
25232;BME280;13176;51.140;6.290;2023-03-12T13:52:55;100022.41;;;13.70;77.20
25232;BME280;13176;51.140;6.290;2023-03-12T13:55:27;100080.78;;;13.98;77.32
25232;BME280;13176;51.140;6.290;2023-03-12T13:58:20;100112.25;;;14.21;77.60
25232;BME280;13176;51.140;6.290;2023-03-12T14:00:59;100108.94;;;14.39;76.64
25232;BME280;13176;51.140;6.290;2023-03-12T14:03:30;100034.81;;;13.88;77.00
25232;BME280;13176;51.140;6.290;2023-03-12T14:08:56;100090.94;;;14.07;75.91
25232;BME280;13176;51.140;6.290;2023-03-12T14:11:42;100091.38;;;13.95;75.14
25232;BME280;13176;51.140;6.290;2023-03-12T14:14:33;100085.00;;;14.25;75.62
25232;BME280;13176;51.140;6.290;2023-03-12T14:17:39;100084.28;;;14.43;74.56
25232;BME280;13176;51.140;6.290;2023-03-12T14:20:18;100079.84;;;14.45;74.66
25232;BME280;13176;51.140;6.290;2023-03-12T14:22:50;100069.34;;;14.45;74.85
25232;BME280;13176;51.140;6.290;2023-03-12T14:25:33;99949.94;;;13.46;75.11
25232;BME280;13176;51.140;6.290;2023-03-12T14:28:10;99998.00;;;14.14;74.71
25232;BME280;13176;51.140;6.290;2023-03-12T14:31:04;99893.22;;;13.44;73.83
25232;BME280;13176;51.140;6.290;2023-03-12T14:33:44;100120.06;;;14.67;72.87
25232;BME280;13176;51.140;6.290;2023-03-12T14:36:20;100034.22;;;14.26;71.56
25232;BME280;13176;51.140;6.290;2023-03-12T14:38:48;100117.88;;;14.78;69.38